createdAt,value
2022-10-10T00:00:32.388Z,43.70
2022-10-10T00:01:35.697Z,43.70
2022-10-10T00:02:37.811Z,43.60
2022-10-10T00:03:40.176Z,43.60
2022-10-10T00:04:42.325Z,43.60
2022-10-10T00:05:44.529Z,43.70
2022-10-10T00:06:46.870Z,43.70
2022-10-10T00:07:48.979Z,43.60
2022-10-10T00:08:51.403Z,43.60
2022-10-10T00:09:53.545Z,43.60
2022-10-10T00:10:55.826Z,43.60
2022-10-10T00:11:57.944Z,43.60
2022-10-10T00:13:00.239Z,43.60
2022-10-10T00:14:02.452Z,43.50
2022-10-10T00:15:05.105Z,43.50
2022-10-10T00:16:07.477Z,43.50
2022-10-10T00:17:09.659Z,43.40
2022-10-10T00:18:11.879Z,43.40
2022-10-10T00:19:14.351Z,43.30
2022-10-10T00:20:17.880Z,43.40
2022-10-10T00:21:20.004Z,43.40
2022-10-10T00:22:22.112Z,43.30
2022-10-10T00:23:24.426Z,43.30
2022-10-10T00:24:26.521Z,43.30
2022-10-10T00:25:28.640Z,43.30
2022-10-10T00:26:30.774Z,43.30
2022-10-10T00:27:33.145Z,43.30
2022-10-10T00:28:38.258Z,43.30
2022-10-10T00:29:40.526Z,43.20
2022-10-10T00:30:42.829Z,43.30
2022-10-10T00:31:44.938Z,43.10
2022-10-10T00:32:47.146Z,43.30
2022-10-10T00:33:49.429Z,43.40
2022-10-10T00:34:51.592Z,43.30
2022-10-10T00:35:53.673Z,43.40
2022-10-10T00:36:55.830Z,43.40
2022-10-10T00:37:57.949Z,43.50
2022-10-10T00:39:01.392Z,43.40
2022-10-10T00:40:04.500Z,43.40
2022-10-10T00:41:06.937Z,43.40
2022-10-10T00:42:12.625Z,43.40
2022-10-10T00:43:14.842Z,43.50
2022-10-10T00:44:16.995Z,43.50
2022-10-10T00:45:25.416Z,43.50
2022-10-10T00:46:27.594Z,43.50
2022-10-10T00:47:29.749Z,43.50
2022-10-10T00:48:35.052Z,43.50
2022-10-10T00:49:40.738Z,43.60
2022-10-10T00:51:08.962Z,43.60
2022-10-10T00:52:11.440Z,43.70
2022-10-10T00:53:15.595Z,43.80
2022-10-10T00:54:19.776Z,43.80
2022-10-10T00:55:22.037Z,43.90
2022-10-10T00:56:27.099Z,43.80
2022-10-10T00:57:29.214Z,43.70
2022-10-10T00:58:32.257Z,43.70
2022-10-10T00:59:36.422Z,43.70
2022-10-10T01:00:38.574Z,43.70
2022-10-10T01:01:41.144Z,43.70
2022-10-10T01:02:43.358Z,43.70
2022-10-10T01:03:45.571Z,43.70
2022-10-10T01:04:47.718Z,43.70
2022-10-10T01:05:50.032Z,43.70
2022-10-10T01:06:52.170Z,43.60
2022-10-10T01:07:54.649Z,43.60
2022-10-10T01:08:57.074Z,43.60
2022-10-10T01:10:02.798Z,43.60
2022-10-10T01:11:12.497Z,43.60
2022-10-10T01:12:14.672Z,43.60
2022-10-10T01:13:42.090Z,43.60
2022-10-10T01:15:02.836Z,43.70
2022-10-10T01:16:18.972Z,43.70
2022-10-10T01:17:30.607Z,43.80
2022-10-10T01:18:51.052Z,43.80
2022-10-10T01:20:11.581Z,43.90
2022-10-10T01:21:32.321Z,44.00
2022-10-10T01:22:40.337Z,44.00
2022-10-10T01:23:45.222Z,43.80
2022-10-10T01:25:16.424Z,43.80
2022-10-10T01:26:41.837Z,43.80
2022-10-10T01:28:08.044Z,43.80
2022-10-10T01:29:17.026Z,43.90
2022-10-10T01:30:23.322Z,43.80
2022-10-10T01:31:25.785Z,43.80
2022-10-10T01:32:39.766Z,43.70
2022-10-10T01:33:50.951Z,43.70
2022-10-10T01:34:55.950Z,43.70
2022-10-10T01:36:00.785Z,43.70
2022-10-10T01:37:11.805Z,43.70
2022-10-10T01:38:19.826Z,44.00
2022-10-10T01:39:22.004Z,44.70
2022-10-10T01:40:44.383Z,44.20
2022-10-10T01:41:56.224Z,45.80
2022-10-10T01:43:01.108Z,43.50
2022-10-10T01:44:03.231Z,43.10
2022-10-10T01:45:05.708Z,43.00
2022-10-10T01:46:12.067Z,43.00
2022-10-10T01:47:14.621Z,43.10
2022-10-10T01:48:19.221Z,43.30
2022-10-10T01:49:24.200Z,44.30
2022-10-10T01:50:26.530Z,44.30
2022-10-10T01:51:34.441Z,44.50
2022-10-10T01:52:43.845Z,44.60
2022-10-10T01:53:58.053Z,44.60
2022-10-10T01:55:11.687Z,44.70
2022-10-10T01:56:19.913Z,44.70
2022-10-10T01:57:26.202Z,44.80
2022-10-10T01:58:47.112Z,45.00
2022-10-10T01:59:57.382Z,44.90
2022-10-10T02:01:05.551Z,44.90
2022-10-10T02:02:19.677Z,44.90
2022-10-10T02:03:28.972Z,44.90
2022-10-10T02:04:33.918Z,45.00
2022-10-10T02:05:35.992Z,45.10
2022-10-10T02:06:43.835Z,45.10
2022-10-10T02:07:54.360Z,45.20
2022-10-10T02:09:00.077Z,45.20
2022-10-10T02:10:03.414Z,45.20
2022-10-10T02:11:08.213Z,45.20
2022-10-10T02:12:12.132Z,44.60
2022-10-10T02:13:15.709Z,44.60
2022-10-10T02:14:23.207Z,44.70
2022-10-10T02:15:26.746Z,44.70
2022-10-10T02:16:37.276Z,44.90
2022-10-10T02:17:40.447Z,45.00
2022-10-10T02:18:45.500Z,45.20
2022-10-10T02:19:53.069Z,45.20
2022-10-10T02:20:55.670Z,45.40
2022-10-10T02:21:58.310Z,45.80
2022-10-10T02:23:00.451Z,46.00
2022-10-10T02:24:04.875Z,46.20
2022-10-10T02:25:07.365Z,46.10
2022-10-10T02:26:12.217Z,46.20
2022-10-10T02:27:18.244Z,46.20
2022-10-10T02:28:46.393Z,46.00
2022-10-10T02:29:49.955Z,45.80
2022-10-10T02:30:55.387Z,45.90
2022-10-10T02:32:06.405Z,46.10
2022-10-10T02:33:08.804Z,46.60
2022-10-10T02:34:16.637Z,46.20
2022-10-10T02:35:21.991Z,46.30
2022-10-10T02:36:25.110Z,46.40
2022-10-10T02:37:27.595Z,46.30
2022-10-10T02:38:30.457Z,46.20
2022-10-10T02:39:35.335Z,46.30
2022-10-10T02:40:38.462Z,46.50
2022-10-10T02:41:42.166Z,46.50
2022-10-10T02:42:45.562Z,46.50
2022-10-10T02:43:48.655Z,47.30
2022-10-10T02:44:51.115Z,47.20
2022-10-10T02:45:53.465Z,47.20
2022-10-10T02:46:55.611Z,47.20
2022-10-10T02:47:57.741Z,47.10
2022-10-10T02:49:01.305Z,47.00
2022-10-10T02:50:03.461Z,47.00
2022-10-10T02:51:05.742Z,46.80
2022-10-10T02:52:08.030Z,46.70
2022-10-10T02:53:10.158Z,46.70
2022-10-10T02:54:12.309Z,46.60
2022-10-10T02:55:14.482Z,46.70
2022-10-10T02:56:16.657Z,46.80
2022-10-10T02:57:18.788Z,47.00
2022-10-10T02:58:20.911Z,46.70
2022-10-10T02:59:23.155Z,46.80
2022-10-10T03:00:25.380Z,46.10
2022-10-10T03:01:27.551Z,46.00
2022-10-10T03:02:30.403Z,46.00
2022-10-10T03:03:32.649Z,45.90
2022-10-10T03:04:36.062Z,46.00
2022-10-10T03:05:38.206Z,46.20
2022-10-10T03:06:40.358Z,46.20
2022-10-10T03:07:42.503Z,46.20
2022-10-10T03:08:44.695Z,46.30
2022-10-10T03:09:47.009Z,46.40
2022-10-10T03:10:59.233Z,46.50
2022-10-10T03:12:01.479Z,46.50
2022-10-10T03:13:03.694Z,46.50
2022-10-10T03:14:05.850Z,46.50
2022-10-10T03:15:11.750Z,46.50
2022-10-10T03:16:14.339Z,46.70
2022-10-10T03:17:16.535Z,46.70
2022-10-10T03:18:18.682Z,46.70
2022-10-10T03:19:20.770Z,46.80
2022-10-10T03:20:22.902Z,47.30
2022-10-10T03:21:25.003Z,46.80
2022-10-10T03:22:27.171Z,46.90
2022-10-10T03:23:29.308Z,46.90
2022-10-10T03:24:31.593Z,46.90
2022-10-10T03:25:34.941Z,46.90
2022-10-10T03:26:37.066Z,46.90
2022-10-10T03:27:39.746Z,46.90
2022-10-10T03:28:42.177Z,46.90
2022-10-10T03:29:44.491Z,46.80
2022-10-10T03:30:47.273Z,47.20
2022-10-10T03:31:50.027Z,47.10
2022-10-10T03:32:52.656Z,46.70
2022-10-10T03:33:55.463Z,46.70
2022-10-10T03:34:57.615Z,46.70
2022-10-10T03:35:59.734Z,46.80
2022-10-10T03:37:01.885Z,47.20
2022-10-10T03:38:04.306Z,47.30
2022-10-10T03:39:07.851Z,47.30
2022-10-10T03:40:09.953Z,47.30
2022-10-10T03:41:12.210Z,47.40
2022-10-10T03:42:14.557Z,47.30
2022-10-10T03:43:16.701Z,47.30
2022-10-10T03:44:18.816Z,47.30
2022-10-10T03:45:21.152Z,47.30
2022-10-10T03:46:23.260Z,47.30
2022-10-10T03:47:25.479Z,47.20
2022-10-10T03:48:27.623Z,47.20
2022-10-10T03:49:29.734Z,47.20
2022-10-10T03:50:32.175Z,47.10
2022-10-10T03:51:34.333Z,47.10
2022-10-10T03:52:36.653Z,47.10
2022-10-10T03:53:39.128Z,47.10
2022-10-10T03:54:41.216Z,47.00
2022-10-10T03:55:43.305Z,47.10
2022-10-10T03:56:45.614Z,47.00
2022-10-10T03:57:47.699Z,47.00
2022-10-10T03:58:49.945Z,47.00
2022-10-10T03:59:52.127Z,47.00
2022-10-10T04:00:58.184Z,47.00
2022-10-10T04:02:00.405Z,47.00
2022-10-10T04:03:06.214Z,47.00
2022-10-10T04:04:08.404Z,47.10
2022-10-10T04:05:10.768Z,46.90
2022-10-10T04:06:13.031Z,46.90
2022-10-10T04:07:15.363Z,46.70
2022-10-10T04:08:17.614Z,46.70
2022-10-10T04:09:19.876Z,46.50
2022-10-10T04:10:22.001Z,47.00
2022-10-10T04:11:24.277Z,46.40
2022-10-10T04:12:26.532Z,46.20
2022-10-10T04:13:28.617Z,46.70
2022-10-10T04:14:30.761Z,46.20
2022-10-10T04:15:32.898Z,45.80
2022-10-10T04:16:35.025Z,45.70
2022-10-10T04:17:37.107Z,46.20
2022-10-10T04:18:39.243Z,47.10
2022-10-10T04:19:41.361Z,47.10
2022-10-10T04:20:43.465Z,47.30
2022-10-10T04:21:45.685Z,47.40
2022-10-10T04:22:48.032Z,46.40
2022-10-10T04:23:50.280Z,46.30
2022-10-10T04:24:52.378Z,46.20
2022-10-10T04:25:54.534Z,46.10
2022-10-10T04:26:56.730Z,46.00
2022-10-10T04:28:01.205Z,46.00
2022-10-10T04:29:03.902Z,46.80
2022-10-10T04:30:06.766Z,47.00
2022-10-10T04:31:08.995Z,47.00
2022-10-10T04:32:11.147Z,47.00
2022-10-10T04:33:13.339Z,47.00
2022-10-10T04:34:15.583Z,46.90
2022-10-10T04:35:17.815Z,46.90
2022-10-10T04:36:20.177Z,46.90
2022-10-10T04:37:22.272Z,46.90
2022-10-10T04:38:24.411Z,46.80
2022-10-10T04:39:26.665Z,46.80
2022-10-10T04:40:29.166Z,46.60
2022-10-10T04:41:31.280Z,46.50
2022-10-10T04:42:33.472Z,46.40
2022-10-10T04:43:35.767Z,46.30
2022-10-10T04:44:38.180Z,46.30
2022-10-10T04:45:40.387Z,46.20
2022-10-10T04:46:42.479Z,46.10
2022-10-10T04:47:44.744Z,46.00
2022-10-10T04:48:46.941Z,46.00
2022-10-10T04:49:49.083Z,46.00
2022-10-10T04:50:52.478Z,45.90
2022-10-10T04:51:54.635Z,45.80
2022-10-10T04:52:57.055Z,45.90
2022-10-10T04:53:59.365Z,46.10
2022-10-10T04:55:01.492Z,46.00
2022-10-10T04:56:04.534Z,46.10
2022-10-10T04:57:06.685Z,45.90
2022-10-10T04:58:08.856Z,45.90
2022-10-10T04:59:10.952Z,45.80
2022-10-10T05:00:13.208Z,45.70
2022-10-10T05:01:15.441Z,45.70
2022-10-10T05:02:17.623Z,45.60
2022-10-10T05:03:20.258Z,45.60
2022-10-10T05:04:22.346Z,45.60
2022-10-10T05:05:24.463Z,45.60
2022-10-10T05:06:26.559Z,45.80
2022-10-10T05:07:28.850Z,45.90
2022-10-10T05:08:30.986Z,46.10
2022-10-10T05:09:33.737Z,46.00
2022-10-10T05:10:39.167Z,46.40
2022-10-10T05:11:41.285Z,46.10
2022-10-10T05:12:43.413Z,46.10
2022-10-10T05:13:45.641Z,44.10
2022-10-10T05:14:48.365Z,43.40
2022-10-10T05:15:51.789Z,43.50
2022-10-10T05:16:54.204Z,44.60
2022-10-10T05:17:56.449Z,44.90
2022-10-10T05:18:58.652Z,45.10
2022-10-10T05:20:00.766Z,45.30
2022-10-10T05:21:03.982Z,45.40
2022-10-10T05:22:06.297Z,45.50
2022-10-10T05:23:08.404Z,45.60
2022-10-10T05:24:10.522Z,45.50
2022-10-10T05:25:12.691Z,45.60
2022-10-10T05:26:14.924Z,45.60
2022-10-10T05:27:17.041Z,45.60
2022-10-10T05:28:19.264Z,45.50
2022-10-10T05:29:21.659Z,45.50
2022-10-10T05:30:23.772Z,45.50
2022-10-10T05:31:26.035Z,45.60
2022-10-10T05:32:28.210Z,45.70
2022-10-10T05:33:30.359Z,45.70
2022-10-10T05:34:32.478Z,45.70
2022-10-10T05:35:34.658Z,45.60
2022-10-10T05:36:36.759Z,45.70
2022-10-10T05:37:38.905Z,45.70
2022-10-10T05:38:41.159Z,45.70
2022-10-10T05:39:43.335Z,45.70
2022-10-10T05:40:45.585Z,45.70
2022-10-10T05:41:47.743Z,45.70
2022-10-10T05:42:50.241Z,46.20
2022-10-10T05:43:52.508Z,45.70
2022-10-10T05:44:54.634Z,45.80
2022-10-10T05:45:56.740Z,45.80
2022-10-10T05:46:58.809Z,45.80
2022-10-10T05:48:00.915Z,45.80
2022-10-10T05:49:03.310Z,45.90
2022-10-10T05:50:06.055Z,45.90
2022-10-10T05:51:08.225Z,45.90
2022-10-10T05:52:10.600Z,45.90
2022-10-10T05:53:12.721Z,45.90
2022-10-10T05:54:15.052Z,45.90
2022-10-10T05:55:17.191Z,45.90
2022-10-10T05:56:19.408Z,45.90
2022-10-10T05:57:21.567Z,45.90
2022-10-10T05:58:23.785Z,45.90
2022-10-10T05:59:25.993Z,45.90
2022-10-10T06:00:28.437Z,46.00
2022-10-10T06:01:30.679Z,46.20
2022-10-10T06:02:32.908Z,46.20
2022-10-10T06:03:35.540Z,46.00
2022-10-10T06:04:37.675Z,45.90
2022-10-10T06:05:40.454Z,45.90
2022-10-10T06:06:42.599Z,45.90
2022-10-10T06:08:05.491Z,45.90
2022-10-10T06:09:07.010Z,45.90
2022-10-10T06:10:09.432Z,46.40
2022-10-10T06:11:11.594Z,45.90
2022-10-10T06:12:13.758Z,46.20
2022-10-10T06:13:20.280Z,46.00
2022-10-10T06:14:25.392Z,46.20
2022-10-10T06:15:27.553Z,46.20
2022-10-10T06:16:29.780Z,46.20
2022-10-10T06:17:31.890Z,46.20
2022-10-10T06:18:34.019Z,46.20
2022-10-10T06:19:36.184Z,46.20
2022-10-10T06:20:39.330Z,46.20
2022-10-10T06:21:41.462Z,46.10
2022-10-10T06:22:43.742Z,46.00
2022-10-10T06:23:46.115Z,46.40
2022-10-10T06:24:52.297Z,46.60
2022-10-10T06:25:55.763Z,47.10
2022-10-10T06:26:57.963Z,47.00
2022-10-10T06:28:00.250Z,46.70
2022-10-10T06:29:02.729Z,46.20
2022-10-10T06:30:05.202Z,46.00
2022-10-10T06:31:08.345Z,45.80
2022-10-10T06:32:10.722Z,45.80
2022-10-10T06:33:13.245Z,45.80
2022-10-10T06:34:15.436Z,45.70
2022-10-10T06:35:17.526Z,46.40
2022-10-10T06:36:19.769Z,46.20
2022-10-10T06:37:22.338Z,46.20
2022-10-10T06:38:24.816Z,46.60
2022-10-10T06:39:26.914Z,46.60
2022-10-10T06:40:29.096Z,46.60
2022-10-10T06:41:31.344Z,46.60
2022-10-10T06:42:33.456Z,46.70
2022-10-10T06:43:35.713Z,46.70
2022-10-10T06:44:37.888Z,46.70
2022-10-10T06:45:41.162Z,46.70
2022-10-10T06:46:43.321Z,46.70
2022-10-10T06:47:45.552Z,46.70
2022-10-10T06:48:47.725Z,46.70
2022-10-10T06:49:50.054Z,46.70
2022-10-10T06:50:56.039Z,46.80
2022-10-10T06:51:58.153Z,46.80
2022-10-10T06:53:00.349Z,47.00
2022-10-10T06:54:02.499Z,47.00
2022-10-10T06:55:04.788Z,47.00
2022-10-10T06:56:06.949Z,47.20
2022-10-10T06:57:09.054Z,47.20
2022-10-10T06:58:11.186Z,47.20
2022-10-10T06:59:13.303Z,47.30
2022-10-10T07:00:15.746Z,47.30
2022-10-10T07:01:19.296Z,47.20
2022-10-10T07:02:23.149Z,47.20
2022-10-10T07:03:25.600Z,47.20
2022-10-10T07:04:27.750Z,47.40
2022-10-10T07:05:29.881Z,47.30
2022-10-10T07:06:34.842Z,47.30
2022-10-10T07:07:38.206Z,47.30
2022-10-10T07:08:40.555Z,47.30
2022-10-10T07:09:42.632Z,47.30
2022-10-10T07:10:45.026Z,47.20
2022-10-10T07:11:47.558Z,47.30
2022-10-10T07:12:49.643Z,47.30
2022-10-10T07:13:53.671Z,47.50
2022-10-10T07:14:55.769Z,47.40
2022-10-10T07:15:57.894Z,47.40
2022-10-10T07:17:00.253Z,47.40
2022-10-10T07:18:02.377Z,47.30
2022-10-10T07:19:05.239Z,47.30
2022-10-10T07:20:07.551Z,47.20
2022-10-10T07:21:10.318Z,47.30
2022-10-10T07:22:12.469Z,47.20
2022-10-10T07:23:14.828Z,47.20
2022-10-10T07:24:16.996Z,47.40
2022-10-10T07:25:19.145Z,47.30
2022-10-10T07:26:22.459Z,47.50
2022-10-10T07:27:25.536Z,47.40
2022-10-10T07:28:28.080Z,47.40
2022-10-10T07:29:30.637Z,47.50
2022-10-10T07:30:33.277Z,47.50
2022-10-10T07:31:35.466Z,47.40
2022-10-10T07:32:37.622Z,47.40
2022-10-10T07:33:44.897Z,47.50
2022-10-10T07:34:50.891Z,47.40
2022-10-10T07:35:54.543Z,47.30
2022-10-10T07:36:56.693Z,47.50
2022-10-10T07:37:58.896Z,47.40
2022-10-10T07:39:01.068Z,47.40
2022-10-10T07:40:03.450Z,47.40
2022-10-10T07:41:09.508Z,47.50
2022-10-10T07:42:11.687Z,47.40
2022-10-10T07:43:14.409Z,47.50
2022-10-10T07:44:16.929Z,47.50
2022-10-10T07:45:19.193Z,47.40
2022-10-10T07:46:21.430Z,47.60
2022-10-10T07:47:23.614Z,47.40
2022-10-10T07:48:25.858Z,47.30
2022-10-10T07:49:28.222Z,47.20
2022-10-10T07:50:31.056Z,47.10
2022-10-10T07:51:33.387Z,47.00
2022-10-10T07:52:35.508Z,47.00
2022-10-10T07:53:37.976Z,47.10
2022-10-10T07:54:40.319Z,47.30
2022-10-10T07:55:43.141Z,47.30
2022-10-10T07:56:45.265Z,47.40
2022-10-10T07:57:51.217Z,47.50
2022-10-10T07:58:55.574Z,47.50
2022-10-10T07:59:57.781Z,47.60
2022-10-10T08:01:07.266Z,47.60
2022-10-10T08:02:09.988Z,47.60
2022-10-10T08:03:12.486Z,47.60
2022-10-10T08:04:14.781Z,47.60
2022-10-10T08:05:16.978Z,47.90
2022-10-10T08:06:19.177Z,47.90
2022-10-10T08:07:21.792Z,47.90
2022-10-10T08:08:24.470Z,47.90
2022-10-10T08:09:27.284Z,47.90
2022-10-10T08:10:29.576Z,48.00
2022-10-10T08:11:32.026Z,47.90
2022-10-10T08:12:34.540Z,47.80
2022-10-10T08:13:37.462Z,48.10
2022-10-10T08:14:40.232Z,47.60
2022-10-10T08:15:42.939Z,47.70
2022-10-10T08:16:45.541Z,47.80
2022-10-10T08:17:48.102Z,47.60
2022-10-10T08:18:50.909Z,47.20
2022-10-10T08:19:53.260Z,47.10
2022-10-10T08:21:02.650Z,47.00
2022-10-10T08:22:05.027Z,47.10
2022-10-10T08:23:07.561Z,47.20
2022-10-10T08:24:10.259Z,47.60
2022-10-10T08:25:12.775Z,47.60
2022-10-10T08:26:16.347Z,47.70
2022-10-10T08:27:19.470Z,47.60
2022-10-10T08:28:22.130Z,47.80
2022-10-10T08:29:25.117Z,47.90
2022-10-10T08:30:27.914Z,47.80
2022-10-10T08:31:30.892Z,47.80
2022-10-10T08:32:33.352Z,47.90
2022-10-10T08:33:36.238Z,48.10
2022-10-10T08:34:38.622Z,48.00
2022-10-10T08:35:41.162Z,48.00
2022-10-10T08:36:43.893Z,48.00
2022-10-10T08:37:46.378Z,48.10
2022-10-10T08:38:49.733Z,48.10
2022-10-10T08:39:52.283Z,48.20
2022-10-10T08:40:57.034Z,48.20
2022-10-10T08:42:00.673Z,48.20
2022-10-10T08:43:06.372Z,48.20
2022-10-10T08:44:11.925Z,48.30
2022-10-10T08:45:19.223Z,48.20
2022-10-10T08:46:27.265Z,48.40
2022-10-10T08:47:37.653Z,48.40
2022-10-10T08:48:40.498Z,48.40
2022-10-10T08:49:48.988Z,48.40
2022-10-10T08:50:54.864Z,48.40
2022-10-10T08:52:07.462Z,48.30
2022-10-10T08:53:12.664Z,48.40
2022-10-10T08:54:16.768Z,48.40
2022-10-10T08:55:19.297Z,48.40
2022-10-10T08:56:24.168Z,48.40
2022-10-10T08:57:29.198Z,48.40
2022-10-10T08:58:37.236Z,48.40
2022-10-10T08:59:39.907Z,48.50
2022-10-10T09:01:02.825Z,48.50
2022-10-10T09:02:23.645Z,48.50
2022-10-10T09:03:43.678Z,48.40
2022-10-10T09:04:46.065Z,48.50
2022-10-10T09:05:57.450Z,48.50
2022-10-10T09:06:59.799Z,48.60
2022-10-10T09:08:04.916Z,48.60
2022-10-10T09:09:25.685Z,48.60
2022-10-10T09:10:30.822Z,48.60
2022-10-10T09:11:51.811Z,48.70
2022-10-10T09:13:00.121Z,48.70
2022-10-10T09:14:11.191Z,48.70
2022-10-10T09:15:24.128Z,48.70
2022-10-10T09:16:44.670Z,48.70
2022-10-10T09:17:51.619Z,48.80
2022-10-10T09:18:59.756Z,48.90
2022-10-10T09:20:17.209Z,49.00
2022-10-10T09:21:24.744Z,48.80
2022-10-10T09:22:30.314Z,48.70
2022-10-10T09:23:35.192Z,48.60
2022-10-10T09:24:43.499Z,48.50
2022-10-10T09:25:49.950Z,48.50
2022-10-10T09:27:05.983Z,48.50
2022-10-10T09:28:27.053Z,48.30
2022-10-10T09:29:33.098Z,48.20
2022-10-10T09:30:37.493Z,48.40
2022-10-10T09:31:45.882Z,48.20
2022-10-10T09:32:55.008Z,48.50
2022-10-10T09:34:13.191Z,48.50
2022-10-10T09:35:18.961Z,48.50
2022-10-10T09:36:23.715Z,48.50
2022-10-10T09:37:46.264Z,48.50
2022-10-10T09:38:53.654Z,48.60
2022-10-10T09:40:16.305Z,48.70
2022-10-10T09:41:21.934Z,48.90
2022-10-10T09:42:37.802Z,49.10
2022-10-10T09:43:41.106Z,49.00
2022-10-10T09:44:43.653Z,48.90
2022-10-10T09:45:51.493Z,49.00
2022-10-10T09:46:54.406Z,49.10
2022-10-10T09:47:56.774Z,49.10
2022-10-10T09:48:59.187Z,49.00
2022-10-10T09:51:06.055Z,49.10
2022-10-10T09:52:27.401Z,49.00
2022-10-10T09:53:29.708Z,49.10
2022-10-10T09:54:32.157Z,49.10
2022-10-10T09:55:36.030Z,49.10
2022-10-10T09:56:44.430Z,49.00
2022-10-10T09:57:47.006Z,48.70
2022-10-10T09:58:50.652Z,48.50
2022-10-10T09:59:54.390Z,48.80
2022-10-10T10:01:10.301Z,48.60
2022-10-10T10:02:23.179Z,47.80
2022-10-10T10:03:25.568Z,47.30
2022-10-10T10:04:32.091Z,48.20
2022-10-10T10:05:34.776Z,48.40
2022-10-10T10:06:37.750Z,48.80
2022-10-10T10:07:47.066Z,48.50
2022-10-10T10:08:52.729Z,48.20
2022-10-10T10:09:57.260Z,48.00
2022-10-10T10:11:00.791Z,47.90
2022-10-10T10:12:04.934Z,47.70
2022-10-10T10:13:12.702Z,47.80
2022-10-10T10:14:22.681Z,47.90
2022-10-10T10:15:29.987Z,47.90
2022-10-10T10:16:37.005Z,48.00
2022-10-10T10:17:39.661Z,47.90
2022-10-10T10:18:43.381Z,48.10
2022-10-10T10:19:46.877Z,48.40
2022-10-10T10:20:50.630Z,48.30
2022-10-10T10:21:53.889Z,48.30
2022-10-10T10:22:56.325Z,48.20
2022-10-10T10:23:58.874Z,48.20
2022-10-10T10:25:21.176Z,48.30
2022-10-10T10:26:28.856Z,48.30
2022-10-10T10:27:31.549Z,48.40
2022-10-10T10:28:43.633Z,48.40
2022-10-10T10:29:48.211Z,48.40
2022-10-10T10:30:53.047Z,48.20
2022-10-10T10:31:55.537Z,48.40
2022-10-10T10:33:06.148Z,48.40
2022-10-10T10:34:21.548Z,48.40
2022-10-10T10:35:40.689Z,48.80
2022-10-10T10:36:43.014Z,48.60
2022-10-10T10:37:54.474Z,48.70
2022-10-10T10:39:06.179Z,48.60
2022-10-10T10:40:14.614Z,48.60
2022-10-10T10:41:22.912Z,48.80
2022-10-10T10:42:25.328Z,48.80
2022-10-10T10:43:33.022Z,48.80
2022-10-10T10:44:38.624Z,48.80
2022-10-10T10:45:41.083Z,49.00
2022-10-10T10:46:43.736Z,48.90
2022-10-10T10:48:01.163Z,48.90
2022-10-10T10:49:14.651Z,48.80
2022-10-10T10:50:27.191Z,48.80
2022-10-10T10:51:35.864Z,48.80
2022-10-10T10:52:52.927Z,48.80
2022-10-10T10:54:14.179Z,48.70
2022-10-10T10:55:22.096Z,48.80
2022-10-10T10:56:35.570Z,48.80
2022-10-10T10:58:00.129Z,48.80
2022-10-10T11:00:17.124Z,49.30
2022-10-10T11:01:23.545Z,48.80
2022-10-10T11:02:37.128Z,48.80
2022-10-10T11:05:21.231Z,48.90
2022-10-10T11:05:35.323Z,49.00
2022-10-10T11:07:00.098Z,49.00
2022-10-10T11:08:20.679Z,49.10
2022-10-10T11:09:50.209Z,49.10
2022-10-10T11:11:04.900Z,49.20
2022-10-10T11:12:26.217Z,49.30
2022-10-10T11:13:37.271Z,49.30
2022-10-10T11:14:44.106Z,49.30
2022-10-10T11:16:07.536Z,49.30
2022-10-10T11:17:13.212Z,49.30
2022-10-10T11:18:35.982Z,49.40
2022-10-10T11:19:45.017Z,49.50
2022-10-10T11:20:52.875Z,49.30
2022-10-10T11:22:02.331Z,49.30
2022-10-10T11:23:25.554Z,49.30
2022-10-10T11:24:38.765Z,49.50
2022-10-10T11:25:52.247Z,49.90
2022-10-10T11:26:56.022Z,49.50
2022-10-10T11:28:08.575Z,49.10
2022-10-10T11:29:19.160Z,48.70
2022-10-10T11:30:25.466Z,48.80
2022-10-10T11:31:30.305Z,48.90
2022-10-10T11:32:50.243Z,49.40
2022-10-10T11:33:59.218Z,49.00
2022-10-10T11:35:12.288Z,48.90
2022-10-10T11:36:19.007Z,49.00
2022-10-10T11:37:27.455Z,48.90
2022-10-10T11:38:35.520Z,48.90
2022-10-10T11:39:56.995Z,48.80
2022-10-10T11:41:01.639Z,48.90
2022-10-10T11:42:08.887Z,48.80
2022-10-10T11:43:20.032Z,49.00
2022-10-10T11:44:26.210Z,48.80
2022-10-10T11:45:32.053Z,48.90
2022-10-10T11:46:42.797Z,48.80
2022-10-10T11:47:48.230Z,48.80
2022-10-10T11:49:22.778Z,48.60
2022-10-10T11:50:29.203Z,48.20
2022-10-10T11:51:41.400Z,48.20
2022-10-10T11:52:50.118Z,48.30
2022-10-10T11:53:53.644Z,48.30
2022-10-10T11:54:55.864Z,48.30
2022-10-10T11:56:01.000Z,48.00
2022-10-10T11:57:06.694Z,47.50
2022-10-10T11:58:10.522Z,47.60
2022-10-10T11:59:12.652Z,48.00
2022-10-10T12:00:15.804Z,48.10
2022-10-10T12:01:25.308Z,48.10
2022-10-10T12:02:31.602Z,47.90
2022-10-10T12:03:34.088Z,48.30
2022-10-10T12:04:36.891Z,48.30
2022-10-10T12:05:41.049Z,48.40
2022-10-10T12:06:45.744Z,48.20
2022-10-10T12:07:56.883Z,48.30
2022-10-10T12:09:06.145Z,48.10
2022-10-10T12:10:10.420Z,47.70
2022-10-10T12:11:17.945Z,47.80
2022-10-10T12:12:23.468Z,47.70
2022-10-10T12:13:28.642Z,48.40
2022-10-10T12:14:31.331Z,48.90
2022-10-10T12:15:41.130Z,48.40
2022-10-10T12:16:45.634Z,48.10
2022-10-10T12:17:47.746Z,47.80
2022-10-10T12:18:54.816Z,48.10
2022-10-10T12:20:07.641Z,48.20
2022-10-10T12:21:14.155Z,48.10
2022-10-10T12:22:23.625Z,48.50
2022-10-10T12:23:29.951Z,48.10
2022-10-10T12:24:33.610Z,48.30
2022-10-10T12:25:37.449Z,48.30
2022-10-10T12:26:54.537Z,48.20
2022-10-10T12:28:02.481Z,48.30
2022-10-10T12:29:05.939Z,48.30
2022-10-10T12:30:08.136Z,48.50
2022-10-10T12:31:10.234Z,48.20
2022-10-10T12:32:15.602Z,47.50
2022-10-10T12:33:32.793Z,48.00
2022-10-10T12:34:40.423Z,48.30
2022-10-10T12:35:43.108Z,48.40
2022-10-10T12:36:56.403Z,48.30
2022-10-10T12:38:04.685Z,48.50
2022-10-10T12:39:10.771Z,48.40
2022-10-10T12:40:12.850Z,48.20
2022-10-10T12:41:16.053Z,48.30
2022-10-10T12:42:28.659Z,48.40
2022-10-10T12:43:39.719Z,48.30
2022-10-10T12:44:43.250Z,48.40
2022-10-10T12:46:06.683Z,48.20
2022-10-10T12:47:14.546Z,48.20
2022-10-10T12:48:21.397Z,48.20
2022-10-10T12:49:24.791Z,48.10
2022-10-10T12:50:28.442Z,48.20
2022-10-10T12:51:32.162Z,48.20
2022-10-10T12:52:36.175Z,48.00
2022-10-10T12:53:38.277Z,48.20
2022-10-10T12:54:42.946Z,48.10
2022-10-10T12:55:46.679Z,48.10
2022-10-10T12:56:51.708Z,48.00
2022-10-10T12:57:55.549Z,48.00
2022-10-10T12:58:57.675Z,48.10
2022-10-10T13:00:19.759Z,47.90
2022-10-10T13:01:30.119Z,48.00
2022-10-10T13:02:33.186Z,47.20
2022-10-10T13:03:35.305Z,47.50
2022-10-10T13:04:40.550Z,47.60
2022-10-10T13:05:43.478Z,47.70
2022-10-10T13:06:46.814Z,47.60
2022-10-10T13:07:49.728Z,46.90
2022-10-10T13:08:53.536Z,47.40
2022-10-10T13:10:03.994Z,47.00
2022-10-10T13:11:06.431Z,47.20
2022-10-10T13:12:20.864Z,47.30
2022-10-10T13:13:22.982Z,46.50
2022-10-10T13:14:26.017Z,46.70
2022-10-10T13:15:28.801Z,46.90
2022-10-10T13:16:34.009Z,47.00
2022-10-10T13:17:37.616Z,47.50
2022-10-10T13:18:39.772Z,46.30
2022-10-10T13:19:42.030Z,47.60
2022-10-10T13:20:44.260Z,47.30
2022-10-10T13:21:47.174Z,47.00
2022-10-10T13:22:49.264Z,46.40
2022-10-10T13:25:17.745Z,47.10
2022-10-10T13:26:19.998Z,47.00
2022-10-10T13:27:32.894Z,47.10
2022-10-10T13:28:36.557Z,46.10
2022-10-10T13:29:40.548Z,47.10
2022-10-10T13:30:42.810Z,46.90
2022-10-10T13:31:45.151Z,46.80
2022-10-10T13:32:47.542Z,47.00
2022-10-10T13:33:49.716Z,47.00
2022-10-10T13:34:53.567Z,46.80
2022-10-10T13:36:03.572Z,46.60
2022-10-10T13:37:06.070Z,46.90
2022-10-10T13:38:08.576Z,46.40
2022-10-10T13:39:16.611Z,47.10
2022-10-10T13:40:19.477Z,46.40
2022-10-10T13:41:22.993Z,46.00
2022-10-10T13:42:28.065Z,46.60
2022-10-10T13:43:31.999Z,47.10
2022-10-10T13:44:48.480Z,47.10
2022-10-10T13:45:56.390Z,47.30
2022-10-10T13:46:58.538Z,47.20
2022-10-10T13:48:00.633Z,46.60
2022-10-10T13:49:12.610Z,46.20
2022-10-10T13:50:19.380Z,46.50
2022-10-10T13:51:39.976Z,46.90
2022-10-10T13:52:42.107Z,46.90
2022-10-10T13:53:48.462Z,46.90
2022-10-10T13:54:50.839Z,46.90
2022-10-10T13:55:59.176Z,46.90
2022-10-10T13:57:02.006Z,46.90
2022-10-10T13:58:06.847Z,46.90
2022-10-10T13:59:12.259Z,46.90
2022-10-10T14:00:16.426Z,46.90
2022-10-10T14:01:20.985Z,46.90
2022-10-10T14:02:28.748Z,46.90
2022-10-10T14:03:31.636Z,46.90
2022-10-10T14:04:36.662Z,46.90